Goldens Bridge, New York
Current Conditions -  °F | °C
As of 1:53 PM on Saturday 20 Dec 2014 (Local Time) from KDXR Reporting Station
Overcast Overcast  
Wind Chill: 23°   Ceiling: 2600
Heat Index: 29°   Visibility: 10mi
Dew Point: 18°   Wind: 6mph
Humidity: 64%   Direction: 320°NW
Pressure: 30.24"   Gusts: NA
Location:  41.29°N, 73.68°W
Report Text: KDXR 201853Z 32005KT 10SM OVC026 M02/M08 A3024 RMK AO2 SLP247 T10171078
Loading
Personal Weather Stations






























Interactive Weather Map New forecast layout! Learn more

10-Day Weather Forecast

Advertisements
Track Severe Weather on mobile